sensor_id;sensor_type;location;lat;lon;timestamp;temperature;humidity
1546;DHT22;766;51.502;9.752;2024-01-10T00:01:21;-8.10;99.90
1546;DHT22;766;51.502;9.752;2024-01-10T00:03:54;-8.10;99.90
1546;DHT22;766;51.502;9.752;2024-01-10T00:06:24;-8.00;99.90
1546;DHT22;766;51.502;9.752;2024-01-10T00:08:52;-8.00;99.90
1546;DHT22;766;51.502;9.752;2024-01-10T00:11:19;-8.00;99.90
1546;DHT22;766;51.502;9.752;2024-01-10T00:13:48;-8.00;99.90
1546;DHT22;766;51.502;9.752;2024-01-10T00:16:17;-8.00;99.90
1546;DHT22;766;51.502;9.752;2024-01-10T00:18:45;-8.00;99.90
1546;DHT22;766;51.502;9.752;2024-01-10T00:21:14;-8.00;99.90
1546;DHT22;766;51.502;9.752;2024-01-10T00:23:42;-8.00;99.90
1546;DHT22;766;51.502;9.752;2024-01-10T00:26:10;-8.00;99.90
1546;DHT22;766;51.502;9.752;2024-01-10T00:28:38;-8.00;99.90
1546;DHT22;766;51.502;9.752;2024-01-10T00:31:06;-7.90;99.90
1546;DHT22;766;51.502;9.752;2024-01-10T00:33:36;-7.90;99.90
1546;DHT22;766;51.502;9.752;2024-01-10T00:36:05;-7.90;99.90
1546;DHT22;766;51.502;9.752;2024-01-10T00:38:33;-7.80;99.90
1546;DHT22;766;51.502;9.752;2024-01-10T00:41:02;-7.80;99.90
1546;DHT22;766;51.502;9.752;2024-01-10T00:43:30;-7.80;99.90
1546;DHT22;766;51.502;9.752;2024-01-10T00:45:59;-7.80;99.90
1546;DHT22;766;51.502;9.752;2024-01-10T00:48:27;-7.90;99.90
1546;DHT22;766;51.502;9.752;2024-01-10T00:50:56;-7.80;99.90
1546;DHT22;766;51.502;9.752;2024-01-10T00:53:25;-7.90;99.90
1546;DHT22;766;51.502;9.752;2024-01-10T00:55:53;-7.90;99.90
1546;DHT22;766;51.502;9.752;2024-01-10T00:58:22;-7.90;99.90
1546;DHT22;766;51.502;9.752;2024-01-10T01:00:50;-7.90;99.90
1546;DHT22;766;51.502;9.752;2024-01-10T01:03:18;-8.00;99.90
1546;DHT22;766;51.502;9.752;2024-01-10T01:05:46;-8.00;99.90
1546;DHT22;766;51.502;9.752;2024-01-10T01:08:16;-8.00;99.90
1546;DHT22;766;51.502;9.752;2024-01-10T01:10:44;-8.00;99.90
1546;DHT22;766;51.502;9.752;2024-01-10T01:13:13;-8.00;99.90
1546;DHT22;766;51.502;9.752;2024-01-10T01:15:41;-8.00;99.90
1546;DHT22;766;51.502;9.752;2024-01-10T01:18:09;-8.00;99.90
1546;DHT22;766;51.502;9.752;2024-01-10T01:20:43;-8.00;99.90
1546;DHT22;766;51.502;9.752;2024-01-10T01:23:11;-8.10;99.90
1546;DHT22;766;51.502;9.752;2024-01-10T01:25:43;-8.10;99.90
1546;DHT22;766;51.502;9.752;2024-01-10T01:28:12;-8.10;99.90
1546;DHT22;766;51.502;9.752;2024-01-10T01:30:40;-8.10;99.90
1546;DHT22;766;51.502;9.752;2024-01-10T01:33:08;-8.10;99.90
1546;DHT22;766;51.502;9.752;2024-01-10T01:35:36;-8.10;99.90
1546;DHT22;766;51.502;9.752;2024-01-10T01:38:04;-8.10;99.90
1546;DHT22;766;51.502;9.752;2024-01-10T01:40:38;-8.20;99.90
1546;DHT22;766;51.502;9.752;2024-01-10T01:43:20;-8.20;99.90
1546;DHT22;766;51.502;9.752;2024-01-10T01:45:51;-8.30;99.90
1546;DHT22;766;51.502;9.752;2024-01-10T01:48:21;-8.20;99.90
1546;DHT22;766;51.502;9.752;2024-01-10T01:50:57;-8.20;99.90
1546;DHT22;766;51.502;9.752;2024-01-10T01:53:27;-8.20;99.90
1546;DHT22;766;51.502;9.752;2024-01-10T01:55:57;-8.30;99.90
1546;DHT22;766;51.502;9.752;2024-01-10T01:58:29;-8.30;99.90
1546;DHT22;766;51.502;9.752;2024-01-10T02:00:57;-8.30;99.90
1546;DHT22;766;51.502;9.752;2024-01-10T02:03:26;-8.30;99.90
1546;DHT22;766;51.502;9.752;2024-01-10T02:05:55;-8.40;99.90
1546;DHT22;766;51.502;9.752;2024-01-10T02:08:23;-8.50;99.90
1546;DHT22;766;51.502;9.752;2024-01-10T02:10:51;-8.50;99.90
1546;DHT22;766;51.502;9.752;2024-01-10T02:13:19;-8.50;99.90
1546;DHT22;766;51.502;9.752;2024-01-10T02:15:49;-8.50;99.90
1546;DHT22;766;51.502;9.752;2024-01-10T02:18:17;-8.50;99.90
1546;DHT22;766;51.502;9.752;2024-01-10T02:20:45;-8.60;99.90
1546;DHT22;766;51.502;9.752;2024-01-10T02:23:14;-8.60;99.90
1546;DHT22;766;51.502;9.752;2024-01-10T02:25:47;-8.70;99.90
1546;DHT22;766;51.502;9.752;2024-01-10T02:28:15;-8.70;99.90
1546;DHT22;766;51.502;9.752;2024-01-10T02:30:43;-8.70;99.90
1546;DHT22;766;51.502;9.752;2024-01-10T02:33:11;-8.70;99.90
1546;DHT22;766;51.502;9.752;2024-01-10T02:35:40;-8.70;99.90
1546;DHT22;766;51.502;9.752;2024-01-10T02:38:08;-8.70;99.90
1546;DHT22;766;51.502;9.752;2024-01-10T02:40:36;-8.70;99.90
1546;DHT22;766;51.502;9.752;2024-01-10T02:43:06;-8.70;99.90
1546;DHT22;766;51.502;9.752;2024-01-10T02:45:35;-8.70;99.90
1546;DHT22;766;51.502;9.752;2024-01-10T02:48:03;-8.70;99.90
1546;DHT22;766;51.502;9.752;2024-01-10T02:50:32;-8.70;99.90
1546;DHT22;766;51.502;9.752;2024-01-10T02:53:00;-8.70;99.90
1546;DHT22;766;51.502;9.752;2024-01-10T02:55:28;-8.70;99.90
1546;DHT22;766;51.502;9.752;2024-01-10T02:57:56;-8.70;99.90
1546;DHT22;766;51.502;9.752;2024-01-10T03:00:26;-8.80;99.90
1546;DHT22;766;51.502;9.752;2024-01-10T03:02:54;-8.80;99.90
1546;DHT22;766;51.502;9.752;2024-01-10T03:05:22;-8.80;99.90
1546;DHT22;766;51.502;9.752;2024-01-10T03:07:50;-8.90;99.90
1546;DHT22;766;51.502;9.752;2024-01-10T03:10:19;-8.90;99.90
1546;DHT22;766;51.502;9.752;2024-01-10T03:12:47;-9.00;99.90
1546;DHT22;766;51.502;9.752;2024-01-10T03:15:15;-9.00;99.90
1546;DHT22;766;51.502;9.752;2024-01-10T03:17:44;-9.10;99.90
1546;DHT22;766;51.502;9.752;2024-01-10T03:20:13;-9.10;99.90
1546;DHT22;766;51.502;9.752;2024-01-10T03:22:42;-9.20;99.90
1546;DHT22;766;51.502;9.752;2024-01-10T03:25:10;-9.20;99.90
1546;DHT22;766;51.502;9.752;2024-01-10T03:27:38;-9.20;99.90
1546;DHT22;766;51.502;9.752;2024-01-10T03:30:07;-9.20;99.90
1546;DHT22;766;51.502;9.752;2024-01-10T03:32:36;-9.20;99.90
1546;DHT22;766;51.502;9.752;2024-01-10T03:35:06;-9.40;99.90
1546;DHT22;766;51.502;9.752;2024-01-10T03:37:35;-9.50;99.90
1546;DHT22;766;51.502;9.752;2024-01-10T03:40:04;-9.60;99.90
1546;DHT22;766;51.502;9.752;2024-01-10T03:42:32;-9.70;99.90
1546;DHT22;766;51.502;9.752;2024-01-10T03:45:00;-9.70;99.90
1546;DHT22;766;51.502;9.752;2024-01-10T03:47:28;-9.80;99.90
1546;DHT22;766;51.502;9.752;2024-01-10T03:49:57;-9.80;99.90
1546;DHT22;766;51.502;9.752;2024-01-10T03:52:28;-9.80;99.90
1546;DHT22;766;51.502;9.752;2024-01-10T03:54:56;-9.90;99.90
1546;DHT22;766;51.502;9.752;2024-01-10T03:57:25;-9.90;99.90
1546;DHT22;766;51.502;9.752;2024-01-10T03:59:53;-9.80;99.90
1546;DHT22;766;51.502;9.752;2024-01-10T04:02:21;-9.80;99.90
1546;DHT22;766;51.502;9.752;2024-01-10T04:04:49;-9.70;99.90
1546;DHT22;766;51.502;9.752;2024-01-10T04:07:17;-9.80;99.90
1546;DHT22;766;51.502;9.752;2024-01-10T04:09:47;-9.80;99.90
1546;DHT22;766;51.502;9.752;2024-01-10T04:12:15;-9.70;99.90
1546;DHT22;766;51.502;9.752;2024-01-10T04:14:44;-9.70;99.90
1546;DHT22;766;51.502;9.752;2024-01-10T04:17:12;-9.70;99.90
1546;DHT22;766;51.502;9.752;2024-01-10T04:19:40;-9.70;99.90
1546;DHT22;766;51.502;9.752;2024-01-10T04:22:08;-9.70;99.90
1546;DHT22;766;51.502;9.752;2024-01-10T04:24:36;-9.60;99.90
1546;DHT22;766;51.502;9.752;2024-01-10T04:27:06;-9.70;99.90
1546;DHT22;766;51.502;9.752;2024-01-10T04:29:36;-9.80;99.90
1546;DHT22;766;51.502;9.752;2024-01-10T04:32:05;-9.80;99.90
1546;DHT22;766;51.502;9.752;2024-01-10T04:34:34;-9.80;99.90
1546;DHT22;766;51.502;9.752;2024-01-10T04:37:02;-9.90;99.90
1546;DHT22;766;51.502;9.752;2024-01-10T04:39:31;-9.80;99.90
1546;DHT22;766;51.502;9.752;2024-01-10T04:41:59;-9.90;99.90
1546;DHT22;766;51.502;9.752;2024-01-10T04:44:29;-9.80;99.90
1546;DHT22;766;51.502;9.752;2024-01-10T04:46:57;-9.80;99.90
1546;DHT22;766;51.502;9.752;2024-01-10T04:49:26;-9.80;99.90
1546;DHT22;766;51.502;9.752;2024-01-10T04:51:54;-9.90;99.90
1546;DHT22;766;51.502;9.752;2024-01-10T04:54:22;-9.90;99.90
1546;DHT22;766;51.502;9.752;2024-01-10T04:56:51;-9.90;99.90
1546;DHT22;766;51.502;9.752;2024-01-10T04:59:19;-9.80;99.90
1546;DHT22;766;51.502;9.752;2024-01-10T05:01:49;-9.80;99.90
1546;DHT22;766;51.502;9.752;2024-01-10T05:04:17;-9.80;99.90
1546;DHT22;766;51.502;9.752;2024-01-10T05:06:45;-9.80;99.90
1546;DHT22;766;51.502;9.752;2024-01-10T05:09:13;-9.80;99.90
1546;DHT22;766;51.502;9.752;2024-01-10T05:11:42;-9.90;99.90
1546;DHT22;766;51.502;9.752;2024-01-10T05:14:11;-9.90;99.90
1546;DHT22;766;51.502;9.752;2024-01-10T05:16:39;-10.00;99.90
1546;DHT22;766;51.502;9.752;2024-01-10T05:19:09;-10.00;99.90
1546;DHT22;766;51.502;9.752;2024-01-10T05:21:37;-10.00;99.90
1546;DHT22;766;51.502;9.752;2024-01-10T05:24:05;-10.00;99.90
1546;DHT22;766;51.502;9.752;2024-01-10T05:26:33;-10.00;99.90
1546;DHT22;766;51.502;9.752;2024-01-10T05:29:02;-10.00;99.90
1546;DHT22;766;51.502;9.752;2024-01-10T05:31:30;-10.00;99.90
1546;DHT22;766;51.502;9.752;2024-01-10T05:33:58;-9.90;99.90
1546;DHT22;766;51.502;9.752;2024-01-10T05:36:28;-9.90;99.90
1546;DHT22;766;51.502;9.752;2024-01-10T05:38:56;-9.90;99.90
1546;DHT22;766;51.502;9.752;2024-01-10T05:41:24;-9.90;99.90
1546;DHT22;766;51.502;9.752;2024-01-10T05:43:53;-10.00;99.90
1546;DHT22;766;51.502;9.752;2024-01-10T05:46:21;-10.00;99.90
1546;DHT22;766;51.502;9.752;2024-01-10T05:48:49;-10.00;99.90
1546;DHT22;766;51.502;9.752;2024-01-10T05:51:17;-9.90;99.90
1546;DHT22;766;51.502;9.752;2024-01-10T05:53:47;-9.90;99.90
1546;DHT22;766;51.502;9.752;2024-01-10T05:56:15;-9.90;99.90
1546;DHT22;766;51.502;9.752;2024-01-10T05:58:44;-9.90;99.90
1546;DHT22;766;51.502;9.752;2024-01-10T06:01:12;-10.00;99.90
1546;DHT22;766;51.502;9.752;2024-01-10T06:03:40;-10.00;99.90
1546;DHT22;766;51.502;9.752;2024-01-10T06:06:09;-10.00;99.90
1546;DHT22;766;51.502;9.752;2024-01-10T06:08:37;-10.20;99.90
1546;DHT22;766;51.502;9.752;2024-01-10T06:11:07;-10.20;99.90
1546;DHT22;766;51.502;9.752;2024-01-10T06:13:37;-10.20;99.90
1546;DHT22;766;51.502;9.752;2024-01-10T06:16:19;-10.10;99.90
1546;DHT22;766;51.502;9.752;2024-01-10T06:18:47;-10.00;99.90
1546;DHT22;766;51.502;9.752;2024-01-10T06:21:16;-10.00;99.90
1546;DHT22;766;51.502;9.752;2024-01-10T06:23:44;-9.90;99.90
1546;DHT22;766;51.502;9.752;2024-01-10T06:26:14;-9.80;99.90
1546;DHT22;766;51.502;9.752;2024-01-10T06:28:42;-9.70;99.90
1546;DHT22;766;51.502;9.752;2024-01-10T06:31:11;-9.70;99.90
1546;DHT22;766;51.502;9.752;2024-01-10T06:33:39;-9.70;99.90
1546;DHT22;766;51.502;9.752;2024-01-10T06:36:07;-9.70;99.90
1546;DHT22;766;51.502;9.752;2024-01-10T06:38:36;-9.70;99.90
1546;DHT22;766;51.502;9.752;2024-01-10T06:41:08;-9.70;99.90
1546;DHT22;766;51.502;9.752;2024-01-10T06:43:38;-9.80;99.90
1546;DHT22;766;51.502;9.752;2024-01-10T06:46:09;-9.70;99.90
1546;DHT22;766;51.502;9.752;2024-01-10T06:48:38;-9.70;99.90
1546;DHT22;766;51.502;9.752;2024-01-10T06:51:10;-9.70;99.90
1546;DHT22;766;51.502;9.752;2024-01-10T06:53:40;-9.70;99.90
1546;DHT22;766;51.502;9.752;2024-01-10T06:56:09;-9.70;99.90
1546;DHT22;766;51.502;9.752;2024-01-10T06:58:40;-9.70;99.90
1546;DHT22;766;51.502;9.752;2024-01-10T07:01:11;-9.70;99.90
1546;DHT22;766;51.502;9.752;2024-01-10T07:03:41;-9.70;99.90
1546;DHT22;766;51.502;9.752;2024-01-10T07:06:09;-9.70;99.90
1546;DHT22;766;51.502;9.752;2024-01-10T07:08:45;-9.70;99.90
1546;DHT22;766;51.502;9.752;2024-01-10T07:11:14;-9.70;99.90
1546;DHT22;766;51.502;9.752;2024-01-10T07:13:46;-9.70;99.90
1546;DHT22;766;51.502;9.752;2024-01-10T07:16:15;-9.70;99.90
1546;DHT22;766;51.502;9.752;2024-01-10T07:18:43;-9.70;99.90
1546;DHT22;766;51.502;9.752;2024-01-10T07:21:12;-9.70;99.90
1546;DHT22;766;51.502;9.752;2024-01-10T07:23:41;-9.70;99.90
1546;DHT22;766;51.502;9.752;2024-01-10T07:26:13;-9.60;99.90
1546;DHT22;766;51.502;9.752;2024-01-10T07:28:44;-9.60;99.90
1546;DHT22;766;51.502;9.752;2024-01-10T07:31:13;-9.60;99.90
1546;DHT22;766;51.502;9.752;2024-01-10T07:33:41;-9.60;99.90
1546;DHT22;766;51.502;9.752;2024-01-10T07:36:09;-9.60;99.90
1546;DHT22;766;51.502;9.752;2024-01-10T07:38:38;-9.50;99.90
1546;DHT22;766;51.502;9.752;2024-01-10T07:41:06;-9.50;99.90
1546;DHT22;766;51.502;9.752;2024-01-10T07:43:34;-9.50;99.90
1546;DHT22;766;51.502;9.752;2024-01-10T07:46:03;-9.50;99.90
1546;DHT22;766;51.502;9.752;2024-01-10T07:48:31;-9.50;99.90
1546;DHT22;766;51.502;9.752;2024-01-10T07:51:00;-9.50;99.90
1546;DHT22;766;51.502;9.752;2024-01-10T07:53:28;-9.50;99.90
1546;DHT22;766;51.502;9.752;2024-01-10T07:55:56;-9.40;99.90
1546;DHT22;766;51.502;9.752;2024-01-10T07:58:25;-9.50;99.90
1546;DHT22;766;51.502;9.752;2024-01-10T08:00:54;-9.40;99.90
1546;DHT22;766;51.502;9.752;2024-01-10T08:03:23;-9.40;99.90
1546;DHT22;766;51.502;9.752;2024-01-10T08:05:51;-9.30;99.90
1546;DHT22;766;51.502;9.752;2024-01-10T08:08:20;-9.20;99.90
1546;DHT22;766;51.502;9.752;2024-01-10T08:10:48;-9.10;99.90
1546;DHT22;766;51.502;9.752;2024-01-10T08:13:16;-9.00;99.90
1546;DHT22;766;51.502;9.752;2024-01-10T08:15:45;-9.00;99.90
1546;DHT22;766;51.502;9.752;2024-01-10T08:18:13;-8.90;99.90
1546;DHT22;766;51.502;9.752;2024-01-10T08:20:43;-8.90;99.90
1546;DHT22;766;51.502;9.752;2024-01-10T08:23:11;-8.80;99.90
1546;DHT22;766;51.502;9.752;2024-01-10T08:25:40;-8.80;99.90
1546;DHT22;766;51.502;9.752;2024-01-10T08:28:11;-8.80;99.90
1546;DHT22;766;51.502;9.752;2024-01-10T08:30:40;-8.70;99.90
1546;DHT22;766;51.502;9.752;2024-01-10T08:33:08;-8.70;99.90
1546;DHT22;766;51.502;9.752;2024-01-10T08:35:36;-8.60;99.90
1546;DHT22;766;51.502;9.752;2024-01-10T08:38:07;-8.60;99.90
1546;DHT22;766;51.502;9.752;2024-01-10T08:40:36;-8.60;99.90
1546;DHT22;766;51.502;9.752;2024-01-10T08:43:04;-8.50;99.90
1546;DHT22;766;51.502;9.752;2024-01-10T08:45:33;-8.50;99.90
1546;DHT22;766;51.502;9.752;2024-01-10T08:48:01;-8.40;99.90
1546;DHT22;766;51.502;9.752;2024-01-10T08:50:32;-8.40;99.90
1546;DHT22;766;51.502;9.752;2024-01-10T08:53:01;-8.30;99.90
1546;DHT22;766;51.502;9.752;2024-01-10T08:55:33;-8.20;99.90
1546;DHT22;766;51.502;9.752;2024-01-10T08:58:04;-8.20;99.90
1546;DHT22;766;51.502;9.752;2024-01-10T09:00:32;-8.10;99.90
1546;DHT22;766;51.502;9.752;2024-01-10T09:03:01;-8.00;99.90
1546;DHT22;766;51.502;9.752;2024-01-10T09:05:31;-7.90;99.90
1546;DHT22;766;51.502;9.752;2024-01-10T09:08:04;-7.80;99.90
1546;DHT22;766;51.502;9.752;2024-01-10T09:10:36;-7.70;99.90
1546;DHT22;766;51.502;9.752;2024-01-10T09:13:06;-7.60;99.90
1546;DHT22;766;51.502;9.752;2024-01-10T09:15:35;-7.40;99.90
1546;DHT22;766;51.502;9.752;2024-01-10T09:18:03;-7.30;99.90
1546;DHT22;766;51.502;9.752;2024-01-10T09:20:32;-7.20;99.90
1546;DHT22;766;51.502;9.752;2024-01-10T09:23:00;-7.10;99.90
1546;DHT22;766;51.502;9.752;2024-01-10T09:25:29;-6.90;99.90
1546;DHT22;766;51.502;9.752;2024-01-10T09:28:00;-6.80;99.90
1546;DHT22;766;51.502;9.752;2024-01-10T09:30:28;-6.70;99.90
1546;DHT22;766;51.502;9.752;2024-01-10T09:32:56;-6.60;99.90
1546;DHT22;766;51.502;9.752;2024-01-10T09:35:26;-6.60;99.90
1546;DHT22;766;51.502;9.752;2024-01-10T09:37:54;-6.50;99.90
1546;DHT22;766;51.502;9.752;2024-01-10T09:40:22;-6.40;99.90
1546;DHT22;766;51.502;9.752;2024-01-10T09:42:55;-6.30;99.90
1546;DHT22;766;51.502;9.752;2024-01-10T09:45:26;-6.10;99.90
1546;DHT22;766;51.502;9.752;2024-01-10T09:47:56;-6.00;99.90
1546;DHT22;766;51.502;9.752;2024-01-10T09:50:25;-5.90;99.90
1546;DHT22;766;51.502;9.752;2024-01-10T09:52:56;-5.80;99.90
1546;DHT22;766;51.502;9.752;2024-01-10T09:55:26;-5.70;99.90
1546;DHT22;766;51.502;9.752;2024-01-10T09:57:58;-5.60;99.90
1546;DHT22;766;51.502;9.752;2024-01-10T10:00:28;-5.60;99.90
1546;DHT22;766;51.502;9.752;2024-01-10T10:02:59;-5.50;99.90
1546;DHT22;766;51.502;9.752;2024-01-10T10:05:31;-5.50;99.90
1546;DHT22;766;51.502;9.752;2024-01-10T10:08:01;-5.50;99.90
1546;DHT22;766;51.502;9.752;2024-01-10T10:10:31;-5.40;99.90
1546;DHT22;766;51.502;9.752;2024-01-10T10:13:02;-5.20;99.90
1546;DHT22;766;51.502;9.752;2024-01-10T10:15:32;-5.10;99.90
1546;DHT22;766;51.502;9.752;2024-01-10T10:18:00;-4.90;99.90
1546;DHT22;766;51.502;9.752;2024-01-10T10:20:30;-4.80;99.90
1546;DHT22;766;51.502;9.752;2024-01-10T10:23:00;-4.80;99.90
1546;DHT22;766;51.502;9.752;2024-01-10T10:25:31;-4.70;99.90
1546;DHT22;766;51.502;9.752;2024-01-10T10:28:00;-4.70;99.90
1546;DHT22;766;51.502;9.752;2024-01-10T10:30:32;-4.60;99.90
1546;DHT22;766;51.502;9.752;2024-01-10T10:33:02;-4.60;99.90
1546;DHT22;766;51.502;9.752;2024-01-10T10:35:35;-4.40;99.90
1546;DHT22;766;51.502;9.752;2024-01-10T10:38:09;-4.30;99.90
1546;DHT22;766;51.502;9.752;2024-01-10T10:40:38;-4.20;99.90
1546;DHT22;766;51.502;9.752;2024-01-10T10:43:09;-4.20;99.90
1546;DHT22;766;51.502;9.752;2024-01-10T10:45:41;-4.10;99.90
1546;DHT22;766;51.502;9.752;2024-01-10T10:48:16;-4.00;99.90
1546;DHT22;766;51.502;9.752;2024-01-10T10:50:52;-3.80;99.90
1546;DHT22;766;51.502;9.752;2024-01-10T10:53:24;-3.80;99.90
1546;DHT22;766;51.502;9.752;2024-01-10T10:55:54;-3.80;99.90
1546;DHT22;766;51.502;9.752;2024-01-10T10:58:23;-3.60;99.90
1546;DHT22;766;51.502;9.752;2024-01-10T11:00:53;-3.50;99.90
1546;DHT22;766;51.502;9.752;2024-01-10T11:03:23;-3.50;99.90
1546;DHT22;766;51.502;9.752;2024-01-10T11:05:52;-3.40;99.90
1546;DHT22;766;51.502;9.752;2024-01-10T11:08:22;-3.30;99.90
1546;DHT22;766;51.502;9.752;2024-01-10T11:10:52;-3.30;99.90
1546;DHT22;766;51.502;9.752;2024-01-10T11:13:27;-3.20;99.90
1546;DHT22;766;51.502;9.752;2024-01-10T11:16:13;-3.00;99.90
1546;DHT22;766;51.502;9.752;2024-01-10T11:19:04;-3.00;99.90
1546;DHT22;766;51.502;9.752;2024-01-10T11:21:46;-3.10;99.90
1546;DHT22;766;51.502;9.752;2024-01-10T11:24:19;-3.10;99.90
1546;DHT22;766;51.502;9.752;2024-01-10T11:26:47;-3.10;99.90
1546;DHT22;766;51.502;9.752;2024-01-10T11:29:16;-3.10;99.90
1546;DHT22;766;51.502;9.752;2024-01-10T11:31:50;-3.00;99.90
1546;DHT22;766;51.502;9.752;2024-01-10T11:34:24;-3.00;99.90
1546;DHT22;766;51.502;9.752;2024-01-10T11:37:14;-3.00;99.90
1546;DHT22;766;51.502;9.752;2024-01-10T11:39:42;-3.00;99.90
1546;DHT22;766;51.502;9.752;2024-01-10T11:42:21;-3.00;99.90
1546;DHT22;766;51.502;9.752;2024-01-10T11:44:50;-2.90;99.90
1546;DHT22;766;51.502;9.752;2024-01-10T11:47:21;-2.80;99.90
1546;DHT22;766;51.502;9.752;2024-01-10T11:49:56;-2.80;99.90
1546;DHT22;766;51.502;9.752;2024-01-10T11:52:32;-2.60;99.90
1546;DHT22;766;51.502;9.752;2024-01-10T11:55:01;-2.30;99.90
1546;DHT22;766;51.502;9.752;2024-01-10T11:57:30;-2.00;99.90
1546;DHT22;766;51.502;9.752;2024-01-10T11:59:59;-1.60;99.90
1546;DHT22;766;51.502;9.752;2024-01-10T12:02:30;-1.00;99.90
1546;DHT22;766;51.502;9.752;2024-01-10T12:04:59;0.00;99.90
1546;DHT22;766;51.502;9.752;2024-01-10T12:07:28;1.70;99.90
1546;DHT22;766;51.502;9.752;2024-01-10T12:09:57;3.20;99.90
1546;DHT22;766;51.502;9.752;2024-01-10T12:12:25;4.30;99.90
1546;DHT22;766;51.502;9.752;2024-01-10T12:14:53;4.00;99.90
1546;DHT22;766;51.502;9.752;2024-01-10T12:17:22;3.00;99.90
1546;DHT22;766;51.502;9.752;2024-01-10T12:19:55;1.60;99.90
1546;DHT22;766;51.502;9.752;2024-01-10T12:22:23;0.40;99.90
1546;DHT22;766;51.502;9.752;2024-01-10T12:24:51;-0.40;99.90
1546;DHT22;766;51.502;9.752;2024-01-10T12:27:20;-0.90;99.90
1546;DHT22;766;51.502;9.752;2024-01-10T12:29:50;-1.10;99.90
1546;DHT22;766;51.502;9.752;2024-01-10T12:32:23;-1.00;99.90
1546;DHT22;766;51.502;9.752;2024-01-10T12:35:00;-0.50;99.90
1546;DHT22;766;51.502;9.752;2024-01-10T12:37:29;0.40;99.90
1546;DHT22;766;51.502;9.752;2024-01-10T12:39:57;2.20;99.90
1546;DHT22;766;51.502;9.752;2024-01-10T12:42:26;2.80;99.90
1546;DHT22;766;51.502;9.752;2024-01-10T12:44:54;2.40;99.90
1546;DHT22;766;51.502;9.752;2024-01-10T12:47:24;1.90;99.90
1546;DHT22;766;51.502;9.752;2024-01-10T12:49:53;1.40;99.90
1546;DHT22;766;51.502;9.752;2024-01-10T12:52:23;0.40;99.90
1546;DHT22;766;51.502;9.752;2024-01-10T12:54:52;-0.40;99.90
1546;DHT22;766;51.502;9.752;2024-01-10T12:57:20;-0.70;99.90
1546;DHT22;766;51.502;9.752;2024-01-10T12:59:50;-0.90;99.90
1546;DHT22;766;51.502;9.752;2024-01-10T13:02:19;-1.10;99.90
1546;DHT22;766;51.502;9.752;2024-01-10T13:04:47;-0.80;99.90
1546;DHT22;766;51.502;9.752;2024-01-10T13:07:15;-0.30;99.90
1546;DHT22;766;51.502;9.752;2024-01-10T13:09:45;0.20;99.90
1546;DHT22;766;51.502;9.752;2024-01-10T13:12:16;0.30;99.90
1546;DHT22;766;51.502;9.752;2024-01-10T13:14:44;0.30;99.90
1546;DHT22;766;51.502;9.752;2024-01-10T13:17:12;0.00;99.90
1546;DHT22;766;51.502;9.752;2024-01-10T13:19:40;-0.40;99.90
1546;DHT22;766;51.502;9.752;2024-01-10T13:22:12;-0.70;99.90
1546;DHT22;766;51.502;9.752;2024-01-10T13:24:43;-0.80;99.90
1546;DHT22;766;51.502;9.752;2024-01-10T13:27:13;-0.90;99.90
1546;DHT22;766;51.502;9.752;2024-01-10T13:29:44;-0.60;99.90
1546;DHT22;766;51.502;9.752;2024-01-10T13:32:13;-0.60;99.90
1546;DHT22;766;51.502;9.752;2024-01-10T13:34:42;-0.80;99.90
1546;DHT22;766;51.502;9.752;2024-01-10T13:37:12;-1.10;99.90
1546;DHT22;766;51.502;9.752;2024-01-10T13:39:41;-1.30;99.90
1546;DHT22;766;51.502;9.752;2024-01-10T13:42:09;-1.40;99.90
1546;DHT22;766;51.502;9.752;2024-01-10T13:44:39;-1.60;99.90
1546;DHT22;766;51.502;9.752;2024-01-10T13:47:07;-1.70;99.90
1546;DHT22;766;51.502;9.752;2024-01-10T13:49:36;-1.70;99.90
1546;DHT22;766;51.502;9.752;2024-01-10T13:52:05;-1.70;99.90
1546;DHT22;766;51.502;9.752;2024-01-10T13:54:33;-1.70;99.90
1546;DHT22;766;51.502;9.752;2024-01-10T13:57:01;-1.50;99.90
1546;DHT22;766;51.502;9.752;2024-01-10T13:59:30;-1.60;99.90
1546;DHT22;766;51.502;9.752;2024-01-10T14:01:59;-1.70;99.90
1546;DHT22;766;51.502;9.752;2024-01-10T14:04:28;-1.70;99.90
1546;DHT22;766;51.502;9.752;2024-01-10T14:06:56;-1.70;99.90
1546;DHT22;766;51.502;9.752;2024-01-10T14:09:24;-1.70;99.90
1546;DHT22;766;51.502;9.752;2024-01-10T14:11:52;-1.80;99.90
1546;DHT22;766;51.502;9.752;2024-01-10T14:14:20;-1.80;99.90
1546;DHT22;766;51.502;9.752;2024-01-10T14:16:52;-1.80;99.90
1546;DHT22;766;51.502;9.752;2024-01-10T14:19:22;-1.90;99.90
1546;DHT22;766;51.502;9.752;2024-01-10T14:21:50;-1.90;99.90
1546;DHT22;766;51.502;9.752;2024-01-10T14:24:18;-1.80;99.90
1546;DHT22;766;51.502;9.752;2024-01-10T14:26:47;-1.90;99.90
1546;DHT22;766;51.502;9.752;2024-01-10T14:29:15;-1.90;99.90
1546;DHT22;766;51.502;9.752;2024-01-10T14:31:43;-2.00;99.90
1546;DHT22;766;51.502;9.752;2024-01-10T14:34:32;-2.10;99.90
1546;DHT22;766;51.502;9.752;2024-01-10T14:37:01;-2.10;99.90
1546;DHT22;766;51.502;9.752;2024-01-10T14:39:29;-2.20;99.90
1546;DHT22;766;51.502;9.752;2024-01-10T14:42:00;-2.20;99.90
1546;DHT22;766;51.502;9.752;2024-01-10T14:44:28;-2.30;99.90
1546;DHT22;766;51.502;9.752;2024-01-10T14:46:57;-2.30;99.90
1546;DHT22;766;51.502;9.752;2024-01-10T14:49:37;-2.30;99.90
1546;DHT22;766;51.502;9.752;2024-01-10T14:52:06;-2.30;99.90
1546;DHT22;766;51.502;9.752;2024-01-10T14:54:34;-2.30;99.90
1546;DHT22;766;51.502;9.752;2024-01-10T14:57:03;-2.40;99.90
1546;DHT22;766;51.502;9.752;2024-01-10T14:59:31;-2.50;99.90
1546;DHT22;766;51.502;9.752;2024-01-10T15:02:11;-2.60;99.90
1546;DHT22;766;51.502;9.752;2024-01-10T15:04:41;-2.70;99.90
1546;DHT22;766;51.502;9.752;2024-01-10T15:07:11;-2.80;99.90
1546;DHT22;766;51.502;9.752;2024-01-10T15:09:42;-3.00;99.90
1546;DHT22;766;51.502;9.752;2024-01-10T15:12:10;-3.00;99.90
1546;DHT22;766;51.502;9.752;2024-01-10T15:14:40;-3.10;99.90
1546;DHT22;766;51.502;9.752;2024-01-10T15:17:09;-3.10;99.90
1546;DHT22;766;51.502;9.752;2024-01-10T15:19:41;-3.30;99.90
1546;DHT22;766;51.502;9.752;2024-01-10T15:22:12;-3.30;99.90
1546;DHT22;766;51.502;9.752;2024-01-10T15:24:41;-3.30;99.90
1546;DHT22;766;51.502;9.752;2024-01-10T15:27:09;-3.40;99.90
1546;DHT22;766;51.502;9.752;2024-01-10T15:29:38;-3.40;99.90
1546;DHT22;766;51.502;9.752;2024-01-10T15:32:08;-3.60;99.90
1546;DHT22;766;51.502;9.752;2024-01-10T15:34:36;-3.60;99.90
1546;DHT22;766;51.502;9.752;2024-01-10T15:37:06;-3.70;99.90
1546;DHT22;766;51.502;9.752;2024-01-10T15:39:35;-3.70;99.90
1546;DHT22;766;51.502;9.752;2024-01-10T15:42:05;-3.70;99.90
1546;DHT22;766;51.502;9.752;2024-01-10T15:44:38;-3.70;99.90
1546;DHT22;766;51.502;9.752;2024-01-10T15:47:07;-3.80;99.90
1546;DHT22;766;51.502;9.752;2024-01-10T15:49:35;-3.80;99.90
1546;DHT22;766;51.502;9.752;2024-01-10T15:52:03;-3.90;99.90
1546;DHT22;766;51.502;9.752;2024-01-10T15:54:33;-3.90;99.90
1546;DHT22;766;51.502;9.752;2024-01-10T15:57:05;-4.00;99.90
1546;DHT22;766;51.502;9.752;2024-01-10T15:59:34;-4.10;99.90
1546;DHT22;766;51.502;9.752;2024-01-10T16:02:02;-4.10;99.90
1546;DHT22;766;51.502;9.752;2024-01-10T16:04:30;-4.20;99.90
1546;DHT22;766;51.502;9.752;2024-01-10T16:06:58;-4.30;99.90
1546;DHT22;766;51.502;9.752;2024-01-10T16:09:26;-4.30;99.90
1546;DHT22;766;51.502;9.752;2024-01-10T16:11:56;-4.40;99.90
1546;DHT22;766;51.502;9.752;2024-01-10T16:14:23;-4.40;99.90
1546;DHT22;766;51.502;9.752;2024-01-10T16:16:52;-4.40;99.90
1546;DHT22;766;51.502;9.752;2024-01-10T16:19:20;-4.50;99.90
1546;DHT22;766;51.502;9.752;2024-01-10T16:21:48;-4.50;99.90
1546;DHT22;766;51.502;9.752;2024-01-10T16:24:17;-4.50;99.90
1546;DHT22;766;51.502;9.752;2024-01-10T16:26:45;-4.60;99.90
1546;DHT22;766;51.502;9.752;2024-01-10T16:29:15;-4.60;99.90
1546;DHT22;766;51.502;9.752;2024-01-10T16:31:45;-4.60;99.90